Time;durP1;ratioP1;P1;durP2;ratioP2;P2;SDS_P1;SDS_P2;PMS_P1;PMS_P2;Temp;Humidity;BMP_temperature;BMP_pressure;BME280_temperature;BME280_humidity;BME280_pressure;Samples;Min_cycle;Max_cycle;Signal;HPM_P1;HPM_P2
2023/11/08 00:02:14;;;;;;;1.85;0.98;;;;;;;;;;10499566;28;20054;-72
2023/11/08 00:07:18;;;;;;;1.30;1.02;;;;;;;;;;10488289;28;20048;-72
2023/11/08 00:12:24;;;;;;;1.52;0.82;;;;;;;;;;10491724;28;20184;-71
2023/11/08 00:17:27;;;;;;;2.78;1.10;;;;;;;;;;10492306;28;20048;-71
2023/11/08 00:22:30;;;;;;;0.80;0.68;;;;;;;;;;10491432;28;20050;-71
2023/11/08 00:27:34;;;;;;;2.92;1.00;;;;;;;;;;10491169;28;20631;-72
2023/11/08 00:32:36;;;;;;;;;;;;;;;;;;10493879;28;20067;-73
2023/11/08 00:37:39;;;;;;;1.67;1.20;;;;;;;;;;10497245;28;20448;-73
2023/11/08 00:42:44;;;;;;;1.98;1.17;;;;;;;;;;10501466;28;20089;-73
2023/11/08 00:47:47;;;;;;;2.25;0.80;;;;;;;;;;10490507;28;20135;-73
2023/11/08 00:52:53;;;;;;;1.25;0.80;;;;;;;;;;10504943;28;20076;-73
2023/11/08 00:58:01;;;;;;;2.92;1.20;;;;;;;;;;10490658;28;20158;-72
2023/11/08 01:03:04;;;;;;;3.33;0.90;;;;;;;;;;10494037;28;20040;-73
2023/11/08 01:08:07;;;;;;;1.35;1.05;;;;;;;;;;10508363;28;20040;-72
2023/11/08 01:13:13;;;;;;;1.17;0.57;;;;;;;;;;10505417;28;20064;-72
2023/11/08 01:18:16;;;;;;;1.52;0.47;;;;;;;;;;10501595;28;20128;-71
2023/11/08 01:23:19;;;;;;;1.17;0.60;;;;;;;;;;10503522;28;20446;-73
2023/11/08 01:28:23;;;;;;;4.35;0.98;;;;;;;;;;10502193;28;20318;-73
2023/11/08 01:33:26;;;;;;;1.77;0.50;;;;;;;;;;10494609;28;20697;-73
2023/11/08 01:38:30;;;;;;;1.67;0.68;;;;;;;;;;10497504;28;20048;-72
2023/11/08 01:43:36;;;;;;;1.75;0.60;;;;;;;;;;10495524;28;20048;-73
2023/11/08 01:48:41;;;;;;;1.80;0.52;;;;;;;;;;10503291;28;20281;-74
2023/11/08 01:53:45;;;;;;;1.48;0.82;;;;;;;;;;10505458;28;20326;-72
2023/11/08 01:58:51;;;;;;;1.50;0.55;;;;;;;;;;10505238;28;20109;-71
2023/11/08 02:03:55;;;;;;;0.30;0.25;;;;;;;;;;10500764;28;20493;-72
2023/11/08 02:09:00;;;;;;;0.70;0.38;;;;;;;;;;10496723;28;20565;-72
2023/11/08 02:14:05;;;;;;;1.85;0.50;;;;;;;;;;10505438;28;20366;-73
2023/11/08 02:19:08;;;;;;;1.25;0.50;;;;;;;;;;10497904;28;20056;-71
2023/11/08 02:24:19;;;;;;;1.58;0.63;;;;;;;;;;10504332;28;20033;-71
2023/11/08 02:29:22;;;;;;;4.13;0.88;;;;;;;;;;10495745;28;20048;-73
2023/11/08 02:34:24;;;;;;;1.38;0.65;;;;;;;;;;10503400;28;20076;-71
2023/11/08 02:39:29;;;;;;;1.30;0.52;;;;;;;;;;10502722;28;20121;-72
2023/11/08 02:44:31;;;;;;;;;;;;;;;;;;10495940;28;20127;-72
2023/11/08 02:49:34;;;;;;;1.23;0.68;;;;;;;;;;10493275;28;19921;-72
2023/11/08 02:54:38;;;;;;;0.32;0.30;;;;;;;;;;10498092;28;20596;-72
2023/11/08 02:59:41;;;;;;;2.38;0.82;;;;;;;;;;10500964;28;20501;-71
2023/11/08 03:04:44;;;;;;;0.90;0.77;;;;;;;;;;10492631;28;20036;-71
2023/11/08 03:09:48;;;;;;;0.43;0.28;;;;;;;;;;10495246;28;20119;-71
2023/11/08 03:14:54;;;;;;;1.00;0.30;;;;;;;;;;10497344;28;20036;-71
2023/11/08 03:19:57;;;;;;;0.30;0.20;;;;;;;;;;10497168;28;20117;-70
2023/11/08 03:25:02;;;;;;;0.85;0.45;;;;;;;;;;10495624;28;20470;-73
2023/11/08 03:30:06;;;;;;;1.02;0.30;;;;;;;;;;10527071;27;20087;-70
2023/11/08 03:35:09;;;;;;;0.87;0.20;;;;;;;;;;10498511;28;20409;-71
2023/11/08 03:40:15;;;;;;;0.80;0.50;;;;;;;;;;10494133;28;20394;-71
2023/11/08 03:45:18;;;;;;;0.08;0.03;;;;;;;;;;10491378;28;20048;-71
2023/11/08 03:50:20;;;;;;;0.93;0.25;;;;;;;;;;10491752;28;20072;-71
2023/11/08 03:55:26;;;;;;;0.80;0.32;;;;;;;;;;10498571;28;20113;-71
2023/11/08 04:00:32;;;;;;;0.40;0.40;;;;;;;;;;10494339;28;20645;-72
2023/11/08 04:05:36;;;;;;;0.25;0.25;;;;;;;;;;10499960;28;20056;-71
2023/11/08 04:10:41;;;;;;;0.40;0.40;;;;;;;;;;10502658;28;20064;-73
2023/11/08 04:15:45;;;;;;;4.90;0.63;;;;;;;;;;10496101;28;20290;-71
2023/11/08 04:20:48;;;;;;;2.75;0.45;;;;;;;;;;10489827;28;20139;-72
2023/11/08 04:25:53;;;;;;;0.60;0.47;;;;;;;;;;10496026;28;20035;-71
2023/11/08 04:30:56;;;;;;;0.32;0.32;;;;;;;;;;10495697;28;20607;-70
2023/11/08 04:35:59;;;;;;;0.63;0.30;;;;;;;;;;10491420;28;20086;-71
2023/11/08 04:41:04;;;;;;;0.53;0.40;;;;;;;;;;10495886;28;20646;-71
2023/11/08 04:46:10;;;;;;;0.47;0.25;;;;;;;;;;10495430;28;20305;-71
2023/11/08 04:51:14;;;;;;;1.55;0.30;;;;;;;;;;10493309;28;20501;-71
2023/11/08 04:56:19;;;;;;;1.27;0.65;;;;;;;;;;10492504;28;20099;-71
2023/11/08 05:01:22;;;;;;;1.02;0.40;;;;;;;;;;10488060;28;20048;-71
2023/11/08 05:06:25;;;;;;;1.58;0.32;;;;;;;;;;10489481;28;20029;-71
2023/11/08 05:11:29;;;;;;;1.33;0.57;;;;;;;;;;10497470;28;20097;-71
2023/11/08 05:16:32;;;;;;;0.13;0.10;;;;;;;;;;10495105;28;20405;-71
2023/11/08 05:21:38;;;;;;;1.65;0.57;;;;;;;;;;10493755;28;20049;-71
2023/11/08 05:26:44;;;;;;;1.17;0.30;;;;;;;;;;10489732;28;20104;-70
2023/11/08 05:31:48;;;;;;;2.08;0.38;;;;;;;;;;10491875;28;20040;-72
2023/11/08 05:36:55;;;;;;;0.20;0.20;;;;;;;;;;10497864;28;20047;-71
2023/11/08 05:41:59;;;;;;;0.38;0.20;;;;;;;;;;10499911;28;20056;-71
2023/11/08 05:47:02;;;;;;;2.10;0.30;;;;;;;;;;10496791;28;20120;-71
2023/11/08 05:52:05;;;;;;;2.05;0.65;;;;;;;;;;10496627;28;20206;-71
2023/11/08 05:57:09;;;;;;;0.65;0.38;;;;;;;;;;10498829;28;20040;-71
2023/11/08 06:02:12;;;;;;;;;;;;;;;;;;10502087;28;20072;-72
2023/11/08 06:07:15;;;;;;;0.85;0.77;;;;;;;;;;10498482;28;20017;-72
2023/11/08 06:12:19;;;;;;;1.27;0.63;;;;;;;;;;10497969;28;20426;-73
2023/11/08 06:17:22;;;;;;;1.27;0.20;;;;;;;;;;10503229;28;20075;-72
2023/11/08 06:22:26;;;;;;;2.53;0.73;;;;;;;;;;10501186;28;20048;-71
2023/11/08 06:27:30;;;;;;;0.88;0.13;;;;;;;;;;10502829;28;20041;-74
2023/11/08 06:32:38;;;;;;;1.52;0.70;;;;;;;;;;10494547;28;20040;-72
2023/11/08 06:37:40;;;;;;;0.30;0.30;;;;;;;;;;10492829;28;20067;-72
2023/11/08 06:42:48;;;;;;;0.68;0.40;;;;;;;;;;10494114;28;20081;-71
2023/11/08 06:47:51;;;;;;;0.22;0.10;;;;;;;;;;10504241;28;20046;-70
2023/11/08 06:52:53;;;;;;;2.17;0.52;;;;;;;;;;10494559;28;20117;-71
2023/11/08 06:57:57;;;;;;;1.13;0.52;;;;;;;;;;10492011;28;20044;-72
2023/11/08 07:03:00;;;;;;;;;;;;;;;;;;10497802;28;20086;-71
2023/11/08 07:08:03;;;;;;;0.70;0.30;;;;;;;;;;10500622;28;19928;-72
2023/11/08 07:13:07;;;;;;;0.50;0.40;;;;;;;;;;10496806;28;20079;-71
2023/11/08 07:18:15;;;;;;;1.25;0.60;;;;;;;;;;10490950;28;20047;-71
2023/11/08 07:23:18;;;;;;;1.60;0.45;;;;;;;;;;10493094;28;20120;-70
2023/11/08 07:28:22;;;;;;;0.50;0.50;;;;;;;;;;10500975;28;20041;-70
2023/11/08 07:33:25;;;;;;;;;;;;;;;;;;10496466;28;20461;-73
2023/11/08 07:38:27;;;;;;;16.20;0.90;;;;;;;;;;10495571;28;20457;-71
2023/11/08 07:43:31;;;;;;;2.03;0.90;;;;;;;;;;10495819;28;20387;-71
2023/11/08 07:48:34;;;;;;;0.30;0.30;;;;;;;;;;10498910;28;20070;-71
2023/11/08 07:53:37;;;;;;;1.27;0.60;;;;;;;;;;10495808;28;20129;-72
2023/11/08 07:58:41;;;;;;;0.88;0.45;;;;;;;;;;10499165;28;20242;-71
2023/11/08 08:03:45;;;;;;;4.32;0.57;;;;;;;;;;10492278;28;20098;-74
2023/11/08 08:08:47;;;;;;;1.67;0.80;;;;;;;;;;10493370;28;20043;-73
2023/11/08 08:13:52;;;;;;;0.60;0.60;;;;;;;;;;10497245;28;20063;-73
2023/11/08 08:18:54;;;;;;;1.15;0.80;;;;;;;;;;10496504;28;20036;-71
2023/11/08 08:23:57;;;;;;;1.30;0.52;;;;;;;;;;10497096;28;20482;-73
2023/11/08 08:29:10;;;;;;;0.50;0.32;;;;;;;;;;10493424;28;20076;-71
2023/11/08 08:34:14;;;;;;;2.15;0.68;;;;;;;;;;10495123;28;20048;-70
2023/11/08 08:39:28;;;;;;;0.25;0.25;;;;;;;;;;10493250;28;20714;-71
2023/11/08 08:44:33;;;;;;;0.20;0.20;;;;;;;;;;10491879;28;20055;-71
2023/11/08 08:49:36;;;;;;;1.05;0.50;;;;;;;;;;10498713;28;20037;-73
2023/11/08 08:54:38;;;;;;;1.08;0.52;;;;;;;;;;10496694;28;20053;-71
2023/11/08 08:59:43;;;;;;;0.65;0.65;;;;;;;;;;10492846;28;20523;-72
2023/11/08 09:04:46;;;;;;;2.28;0.63;;;;;;;;;;10496373;28;20054;-71
2023/11/08 09:09:49;;;;;;;0.93;0.50;;;;;;;;;;10488895;28;20457;-73
2023/11/08 09:14:53;;;;;;;0.90;0.60;;;;;;;;;;10495064;28;20081;-70
2023/11/08 09:19:55;;;;;;;;;;;;;;;;;;10498012;28;20037;-70
2023/11/08 09:25:07;;;;;;;3.13;0.70;;;;;;;;;;10493203;28;20439;-70
2023/11/08 09:30:12;;;;;;;0.50;0.50;;;;;;;;;;10505692;28;20066;-73
2023/11/08 09:35:14;;;;;;;1.38;0.45;;;;;;;;;;10510563;28;20460;-73
2023/11/08 09:40:18;;;;;;;2.70;0.50;;;;;;;;;;10498082;28;20046;-74
2023/11/08 09:45:25;;;;;;;1.90;0.57;;;;;;;;;;10496470;28;20040;-71
2023/11/08 09:50:33;;;;;;;0.65;0.40;;;;;;;;;;10497812;28;20134;-71
2023/11/08 09:55:35;;;;;;;;;;;;;;;;;;10497770;28;20630;-71
2023/11/08 10:00:41;;;;;;;2.33;0.73;;;;;;;;;;10495290;28;21793;-71
2023/11/08 10:05:46;;;;;;;1.65;0.60;;;;;;;;;;10507776;28;20130;-71
2023/11/08 10:10:49;;;;;;;0.47;0.38;;;;;;;;;;10501804;28;20482;-70
2023/11/08 10:16:00;;;;;;;0.60;0.57;;;;;;;;;;10494857;28;20155;-72
2023/11/08 10:21:16;;;;;;;1.17;0.70;;;;;;;;;;10501577;28;20052;-71
2023/11/08 10:26:21;;;;;;;0.88;0.60;;;;;;;;;;10496805;28;20386;-71
2023/11/08 10:31:35;;;;;;;1.23;0.60;;;;;;;;;;10501373;28;20079;-72
2023/11/08 10:36:40;;;;;;;1.60;1.50;;;;;;;;;;10494391;28;20070;-71
2023/11/08 10:41:43;;;;;;;1.42;1.33;;;;;;;;;;10494143;28;20152;-72
2023/11/08 10:46:55;;;;;;;6.20;1.88;;;;;;;;;;10493246;28;20101;-72
2023/11/08 10:52:01;;;;;;;1.77;1.40;;;;;;;;;;10499898;28;20458;-72
2023/11/08 10:57:06;;;;;;;3.25;1.65;;;;;;;;;;10500883;28;20051;-72
2023/11/08 11:02:16;;;;;;;2.75;1.50;;;;;;;;;;10494767;28;20164;-72
2023/11/08 11:07:19;;;;;;;3.28;1.60;;;;;;;;;;10495060;28;20047;-72
2023/11/08 11:12:26;;;;;;;1.50;1.40;;;;;;;;;;10493028;28;20056;-74
2023/11/08 11:17:33;;;;;;;1.95;0.60;;;;;;;;;;10503414;28;20755;-73
2023/11/08 11:22:35;;;;;;;2.20;0.90;;;;;;;;;;10495251;28;20078;-72
2023/11/08 11:27:43;;;;;;;4.15;1.70;;;;;;;;;;10499175;28;20457;-72
2023/11/08 11:32:48;;;;;;;3.10;1.00;;;;;;;;;;10498246;28;20044;-72
2023/11/08 11:38:13;;;;;;;1.13;0.88;;;;;;;;;;10496933;28;20138;-72
2023/11/08 11:43:39;;;;;;;1.67;0.90;;;;;;;;;;10475672;28;20145;-72
2023/11/08 11:48:47;;;;;;;2.35;0.68;;;;;;;;;;10491030;28;20071;-71
2023/11/08 11:53:53;;;;;;;2.38;0.80;;;;;;;;;;10490165;28;20051;-71
2023/11/08 11:58:57;;;;;;;2.05;1.70;;;;;;;;;;10492680;28;20551;-74
2023/11/08 12:04:02;;;;;;;5.23;1.30;;;;;;;;;;10495158;28;20046;-72
2023/11/08 12:09:10;;;;;;;3.08;1.42;;;;;;;;;;10489017;28;20238;-73
2023/11/08 12:14:17;;;;;;;3.20;1.77;;;;;;;;;;10494597;28;20043;-72
2023/11/08 12:19:22;;;;;;;3.42;1.60;;;;;;;;;;10483363;28;20557;-72
2023/11/08 12:24:26;;;;;;;1.88;0.88;;;;;;;;;;10500780;28;20132;-72
2023/11/08 12:29:30;;;;;;;1.38;1.30;;;;;;;;;;10489266;28;20139;-73
2023/11/08 12:34:36;;;;;;;2.50;1.50;;;;;;;;;;10492815;28;20175;-71
2023/11/08 12:39:41;;;;;;;2.63;1.60;;;;;;;;;;10489090;28;20048;-71
2023/11/08 12:44:47;;;;;;;2.97;0.70;;;;;;;;;;10496441;28;20063;-73
2023/11/08 12:49:52;;;;;;;1.58;0.93;;;;;;;;;;10490496;28;20132;-73
2023/11/08 12:54:58;;;;;;;1.38;1.27;;;;;;;;;;10500634;28;20131;-72
2023/11/08 13:00:07;;;;;;;2.80;0.90;;;;;;;;;;10489745;28;20045;-71
2023/11/08 13:05:14;;;;;;;2.78;1.60;;;;;;;;;;10498738;28;20055;-72
2023/11/08 13:10:17;;;;;;;2.47;1.40;;;;;;;;;;10501180;28;20047;-71
2023/11/08 13:15:20;;;;;;;1.58;0.73;;;;;;;;;;10501603;28;20056;-71
2023/11/08 13:20:31;;;;;;;1.90;0.85;;;;;;;;;;10495900;28;20400;-71
2023/11/08 13:25:33;;;;;;;3.35;1.00;;;;;;;;;;10497903;28;20150;-69
2023/11/08 13:30:37;;;;;;;3.67;1.50;;;;;;;;;;10497366;28;20029;-71
2023/11/08 13:35:41;;;;;;;;;;;;;;;;;;10501100;28;20036;-73
2023/11/08 13:40:45;;;;;;;1.27;1.17;;;;;;;;;;10496501;28;19934;-72
2023/11/08 13:45:48;;;;;;;1.98;0.90;;;;;;;;;;10498129;28;20047;-72
2023/11/08 13:50:51;;;;;;;1.95;1.20;;;;;;;;;;10497444;28;20032;-72
2023/11/08 13:55:55;;;;;;;3.00;1.25;;;;;;;;;;10493191;28;20056;-72
2023/11/08 14:00:59;;;;;;;1.52;1.10;;;;;;;;;;10500803;28;20120;-72
2023/11/08 14:06:01;;;;;;;;;;;;;;;;;;10478513;28;20493;-71
2023/11/08 14:11:05;;;;;;;3.03;0.80;;;;;;;;;;10477138;28;19973;-72
2023/11/08 14:16:08;;;;;;;1.35;0.80;;;;;;;;;;10493673;28;20040;-73
2023/11/08 14:21:11;;;;;;;1.07;0.47;;;;;;;;;;10493770;28;20192;-73
2023/11/08 14:26:15;;;;;;;1.73;0.70;;;;;;;;;;10495760;28;20044;-72
2023/11/08 14:31:18;;;;;;;;;;;;;;;;;;10499992;28;20094;-72
2023/11/08 14:36:21;;;;;;;1.85;0.68;;;;;;;;;;10502521;28;20346;-72
2023/11/08 14:41:25;;;;;;;3.33;0.80;;;;;;;;;;10496654;28;20056;-74
2023/11/08 14:46:29;;;;;;;1.08;0.90;;;;;;;;;;10496481;28;20394;-72
2023/11/08 14:51:32;;;;;;;2.72;0.90;;;;;;;;;;10496327;28;20382;-72
2023/11/08 14:56:38;;;;;;;3.10;1.00;;;;;;;;;;10490274;28;20048;-73
2023/11/08 15:01:41;;;;;;;0.93;0.70;;;;;;;;;;10497319;28;20044;-73
2023/11/08 15:06:45;;;;;;;1.33;0.63;;;;;;;;;;10490039;28;20051;-74
2023/11/08 15:11:48;;;;;;;;;;;;;;;;;;10501664;28;20051;-72
2023/11/08 15:16:52;;;;;;;3.45;1.00;;;;;;;;;;10494804;28;19928;-72
2023/11/08 15:21:55;;;;;;;;;;;;;;;;;;10493237;28;20096;-72
2023/11/08 15:26:58;;;;;;;2.47;1.27;;;;;;;;;;10492842;28;19925;-72
2023/11/08 15:32:03;;;;;;;3.53;1.20;;;;;;;;;;10494409;28;20136;-72
2023/11/08 15:37:07;;;;;;;4.32;1.20;;;;;;;;;;10491551;28;20116;-74
2023/11/08 15:42:09;;;;;;;2.17;1.05;;;;;;;;;;10493732;28;20048;-72
2023/11/08 15:47:13;;;;;;;5.25;1.38;;;;;;;;;;10490245;28;22186;-72
2023/11/08 15:52:16;;;;;;;4.70;1.52;;;;;;;;;;10494244;28;20402;-71
2023/11/08 15:57:20;;;;;;;4.57;1.63;;;;;;;;;;10493855;28;20084;-74
2023/11/08 16:02:25;;;;;;;3.85;1.30;;;;;;;;;;10493848;28;20048;-72
2023/11/08 16:07:27;;;;;;;;;;;;;;;;;;10496977;28;20060;-72
2023/11/08 16:12:31;;;;;;;2.03;1.10;;;;;;;;;;10498041;28;19929;-72
2023/11/08 16:17:34;;;;;;;2.55;1.30;;;;;;;;;;10502522;28;20385;-72
2023/11/08 16:22:37;;;;;;;4.13;1.65;;;;;;;;;;10498124;28;20040;-72
2023/11/08 16:27:40;;;;;;;6.72;2.38;;;;;;;;;;10492066;28;20109;-72
2023/11/08 16:32:45;;;;;;;4.25;1.52;;;;;;;;;;10495216;28;20117;-73
2023/11/08 16:37:48;;;;;;;;;;;;;;;;;;10489812;28;20072;-72
2023/11/08 16:42:51;;;;;;;7.40;1.70;;;;;;;;;;10487139;28;19919;-72
2023/11/08 16:47:55;;;;;;;4.67;2.00;;;;;;;;;;10494901;28;20127;-72
2023/11/08 16:52:58;;;;;;;7.65;2.13;;;;;;;;;;10501333;28;20124;-72
2023/11/08 16:58:00;;;;;;;6.88;2.40;;;;;;;;;;10491183;28;20047;-71
2023/11/08 17:03:06;;;;;;;6.03;2.80;;;;;;;;;;10492131;28;20048;-71
2023/11/08 17:08:09;;;;;;;6.03;2.35;;;;;;;;;;10488309;28;20044;-73
2023/11/08 17:13:15;;;;;;;3.45;1.50;;;;;;;;;;10497374;28;20812;-72
2023/11/08 17:18:20;;;;;;;6.50;2.10;;;;;;;;;;10493296;28;21073;-71
2023/11/08 17:23:22;;;;;;;;;;;;;;;;;;10495392;28;20134;-72
2023/11/08 17:28:29;;;;;;;5.40;1.80;;;;;;;;;;10495657;28;20302;-72
2023/11/08 17:33:32;;;;;;;5.20;2.30;;;;;;;;;;10489763;28;20139;-72
2023/11/08 17:38:35;;;;;;;6.32;2.38;;;;;;;;;;10490359;28;20084;-72
2023/11/08 17:43:38;;;;;;;12.18;3.03;;;;;;;;;;10488783;28;20249;-72
2023/11/08 17:48:42;;;;;;;7.40;2.67;;;;;;;;;;10488257;28;20045;-72
2023/11/08 17:53:45;;;;;;;;;;;;;;;;;;10499232;28;20473;-72
2023/11/08 17:58:48;;;;;;;10.90;3.67;;;;;;;;;;10497169;28;20253;-72
2023/11/08 18:03:53;;;;;;;9.77;3.40;;;;;;;;;;10490838;27;20036;-72
2023/11/08 18:09:02;;;;;;;11.43;3.60;;;;;;;;;;10565778;27;20511;-72
2023/11/08 18:14:05;;;;;;;15.13;4.60;;;;;;;;;;10568346;27;20040;-72
2023/11/08 18:19:09;;;;;;;6.65;3.22;;;;;;;;;;10561794;27;20035;-76
2023/11/08 18:24:12;;;;;;;9.02;3.00;;;;;;;;;;10564570;27;20066;-73
2023/11/08 18:29:15;;;;;;;15.75;4.38;;;;;;;;;;10565170;28;20081;-72
2023/11/08 18:34:22;;;;;;;9.90;3.15;;;;;;;;;;10563904;27;20042;-72
2023/11/08 18:39:25;;;;;;;10.10;3.47;;;;;;;;;;10565550;27;20449;-73
2023/11/08 18:44:27;;;;;;;3.00;2.05;;;;;;;;;;10558625;27;20043;-72
2023/11/08 18:49:38;;;;;;;8.05;2.53;;;;;;;;;;10560200;27;20074;-72
2023/11/08 18:54:41;;;;;;;5.85;2.40;;;;;;;;;;10552910;27;20071;-72
2023/11/08 18:59:44;;;;;;;3.05;1.13;;;;;;;;;;10561411;27;20113;-72
2023/11/08 19:04:48;;;;;;;7.07;2.30;;;;;;;;;;10559368;27;20040;-72
2023/11/08 19:09:51;;;;;;;10.90;2.60;;;;;;;;;;10569091;27;20396;-74
2023/11/08 19:14:55;;;;;;;4.28;2.28;;;;;;;;;;10562241;28;20046;-73
2023/11/08 19:19:59;;;;;;;6.78;2.13;;;;;;;;;;10554724;28;20028;-73
2023/11/08 19:25:02;;;;;;;8.07;2.78;;;;;;;;;;10559165;27;20081;-73
2023/11/08 19:30:05;;;;;;;7.25;2.90;;;;;;;;;;10559203;27;20485;-73
2023/11/08 19:35:11;;;;;;;9.23;3.20;;;;;;;;;;10560452;27;20082;-72
2023/11/08 19:40:15;;;;;;;8.18;3.33;;;;;;;;;;10555442;28;20119;-71
2023/11/08 19:45:21;;;;;;;9.93;3.65;;;;;;;;;;10558830;27;20051;-72
2023/11/08 19:50:29;;;;;;;4.30;1.77;;;;;;;;;;10553971;27;20404;-73
2023/11/08 19:55:37;;;;;;;3.28;1.65;;;;;;;;;;10550426;27;20416;-71
2023/11/08 20:00:41;;;;;;;4.30;1.73;;;;;;;;;;10556608;27;20031;-71
2023/11/08 20:05:46;;;;;;;1.52;1.00;;;;;;;;;;10552370;28;20138;-72
2023/11/08 20:10:49;;;;;;;3.15;1.27;;;;;;;;;;10541336;28;20031;-71
2023/11/08 20:15:52;;;;;;;1.27;0.85;;;;;;;;;;10548204;28;20105;-71
2023/11/08 20:20:56;;;;;;;2.03;1.02;;;;;;;;;;10565548;27;20032;-71
2023/11/08 20:25:58;;;;;;;3.78;1.83;;;;;;;;;;10549210;27;20088;-72
2023/11/08 20:31:01;;;;;;;2.65;1.17;;;;;;;;;;10550767;27;20055;-72
2023/11/08 20:36:07;;;;;;;2.87;1.67;;;;;;;;;;10551157;28;20058;-71
2023/11/08 20:41:12;;;;;;;4.28;1.50;;;;;;;;;;10556790;27;20063;-74
2023/11/08 20:46:17;;;;;;;2.28;1.20;;;;;;;;;;10527641;28;20500;-72
2023/11/08 20:51:20;;;;;;;;;;;;;;;;;;10533805;28;20489;-72
2023/11/08 20:56:25;;;;;;;4.90;1.85;;;;;;;;;;10530389;28;20288;-71
2023/11/08 21:01:28;;;;;;;2.75;1.50;;;;;;;;;;10531906;28;20119;-70
2023/11/08 21:06:31;;;;;;;3.15;1.58;;;;;;;;;;10534421;28;20048;-73
2023/11/08 21:11:36;;;;;;;3.15;1.55;;;;;;;;;;10535713;28;20069;-71
2023/11/08 21:16:39;;;;;;;3.72;1.55;;;;;;;;;;10537318;28;20048;-71
2023/11/08 21:21:43;;;;;;;1.45;0.98;;;;;;;;;;10537082;27;20460;-73
2023/11/08 21:26:48;;;;;;;3.17;1.70;;;;;;;;;;10540123;28;20051;-74
2023/11/08 21:31:50;;;;;;;1.38;0.57;;;;;;;;;;10565703;27;20063;-73
2023/11/08 21:36:53;;;;;;;2.80;1.70;;;;;;;;;;10536982;27;20040;-71
2023/11/08 21:41:57;;;;;;;14.60;5.35;;;;;;;;;;10542023;28;20036;-71
2023/11/08 21:47:00;;;;;;;;;;;;;;;;;;10540769;27;20072;-73
2023/11/08 21:52:03;;;;;;;3.60;1.95;;;;;;;;;;10536118;28;20529;-71
2023/11/08 21:57:12;;;;;;;1.83;1.13;;;;;;;;;;10538219;28;20093;-71
2023/11/08 22:02:15;;;;;;;2.60;1.30;;;;;;;;;;10538005;27;20564;-70
2023/11/08 22:07:18;;;;;;;6.25;1.65;;;;;;;;;;10544807;27;20489;-71
2023/11/08 22:12:23;;;;;;;1.75;1.20;;;;;;;;;;10538292;27;20046;-71
2023/11/08 22:17:26;;;;;;;0.90;0.88;;;;;;;;;;10536524;28;20063;-72
2023/11/08 22:22:29;;;;;;;1.92;1.08;;;;;;;;;;10544623;27;20497;-73
2023/11/08 22:27:33;;;;;;;1.77;1.02;;;;;;;;;;10546983;27;20402;-72
2023/11/08 22:32:35;;;;;;;2.13;1.38;;;;;;;;;;10537261;27;20066;-73
2023/11/08 22:37:38;;;;;;;1.48;0.90;;;;;;;;;;10539928;27;20044;-71
2023/11/08 22:42:42;;;;;;;1.95;1.00;;;;;;;;;;10537283;27;20068;-71
2023/11/08 22:47:45;;;;;;;;;;;;;;;;;;10538580;28;20093;-70
2023/11/08 22:52:48;;;;;;;3.88;1.60;;;;;;;;;;10533694;28;19963;-71
2023/11/08 22:57:52;;;;;;;2.38;1.35;;;;;;;;;;10541065;28;20047;-72
2023/11/08 23:02:55;;;;;;;2.10;1.02;;;;;;;;;;10539497;28;20488;-74
2023/11/08 23:07:58;;;;;;;2.28;1.00;;;;;;;;;;10544605;27;20481;-71
2023/11/08 23:13:05;;;;;;;0.98;0.88;;;;;;;;;;10536925;27;20056;-71
2023/11/08 23:18:10;;;;;;;2.40;1.02;;;;;;;;;;10536176;27;20047;-70
2023/11/08 23:23:13;;;;;;;3.25;1.13;;;;;;;;;;10532831;28;20047;-72
2023/11/08 23:28:17;;;;;;;2.40;0.68;;;;;;;;;;10533217;27;20535;-72
2023/11/08 23:33:20;;;;;;;;;;;;;;;;;;10537150;28;20139;-72
2023/11/08 23:38:23;;;;;;;3.35;1.20;;;;;;;;;;10546400;27;19924;-71
2023/11/08 23:43:27;;;;;;;1.90;0.90;;;;;;;;;;10537165;27;20028;-72
2023/11/08 23:48:30;;;;;;;2.33;1.13;;;;;;;;;;10535876;28;20047;-71
2023/11/08 23:53:32;;;;;;;0.38;0.38;;;;;;;;;;10528678;28;20093;-71
2023/11/08 23:58:36;;;;;;;1.83;0.93;;;;;;;;;;10537098;28;20199;-72
